Home > Products > Valid Products > MTR

000
SAUS45 KPUB 312305 COR
MTRSPD
METAR KSPD 312256Z AUTO 08007KT 24/10 A3020 RMK AO1 SLP179 T02390100





000
SAUS45 KPUB 312205 COR
MTRSPD
METAR KSPD 312156Z AUTO 00000KT 24/11 A3021 RMK AO1 SLP179 T02440111





000
SAUS45 KPUB 312105 COR
MTRSPD
METAR KSPD 312056Z AUTO 03004KT 24/11 A3023 RMK AO1 SLP186 T02440106
58014





000
SAUS45 KPUB 312005 COR
MTRSPD
METAR KSPD 311956Z AUTO 00000KT 23/10 A3025 RMK AO1 SLP196 T02280100





000
SAUS45 KPUB 311905 COR
MTRSPD
METAR KSPD 311856Z AUTO 02003KT 23/11 A3026 RMK AO1 SLP200 T02280111





000
SAUS45 KPUB 311805 COR
MTRSPD
METAR KSPD 311756Z AUTO 19003KT 21/11 A3027 RMK AO1 SLP205 T02110106
10217 20117 58005





000
SAUS45 KPUB 311705 COR
MTRSPD
METAR KSPD 311656Z AUTO 00000KT 20/11 A3029 RMK AO1 SLP210 T02000111





000
SAUS45 KPUB 311605 COR
MTRSPD
METAR KSPD 311556Z AUTO 00000KT 19/11 A3028 RMK AO1 SLP208 T01890111





000
SAUS45 KPUB 311505 COR
MTRSPD
METAR KSPD 311456Z AUTO 00000KT 17/12 A3029 RMK AO1 SLP212 T01720117
53006





000
SAUS45 KPUB 311405 COR
MTRSPD
METAR KSPD 311356Z AUTO 00000KT 16/13 A3028 RMK AO1 SLP209 T01610133





000
SAUS45 KPUB 311305 COR
MTRSPD
METAR KSPD 311256Z AUTO 00000KT 14/13 A3027 RMK AO1 SLP207 T01440133
$





000
SAUS45 KPUB 311205 COR
MTRSPD
METAR KSPD 311156Z AUTO 27003KT 12/11 A3027 RMK AO1 SLP211 70005
T01170111 10139 20111 55005 $





000
SAUS45 KPUB 311105 COR
MTRSPD
METAR KSPD 311056Z AUTO 30004KT 11/11 A3027 RMK AO1 SLP211 T01110111
$





000
SAUS45 KPUB 311005 COR
MTRSPD
METAR KSPD 310956Z AUTO 31005KT 12/11 A3027 RMK AO1 SLP212 T01170111
$





000
SAUS45 KPUB 310905 COR
MTRSPD
METAR KSPD 310856Z AUTO 31005KT 12/12 A3029 RMK AO1 SLP217 T01220117
55006 $





000
SAUS45 KPUB 310805 COR
MTRSPD
METAR KSPD 310756Z AUTO 31003KT 12/12 A3028 RMK AO1 SLP215 T01220117
$





000
SAUS45 KPUB 310705 COR
MTRSPD
METAR KSPD 310656Z AUTO 00000KT 13/12 A3029 RMK AO1 SLP219 T01280122
401830128 $





000
SAUS45 KPUB 310605 COR
MTRSPD
METAR KSPD 310556Z AUTO 00000KT 13/13 A3031 RMK AO1 SLP223 T01330128
10167 20133 51006 $





000
SAUS45 KPUB 310505 COR
MTRSPD
METAR KSPD 310456Z AUTO 00000KT 14/13 A3030 RMK AO1 SLP220 T01440128
$





000
SAUS45 KPUB 310405 COR
MTRSPD
METAR KSPD 310356Z AUTO 32003KT 15/14 A3030 RMK AO1 SLP216 T01500139
$





000
SAUS45 KPUB 310405 COR
MTRSPD
METAR KSPD 310356Z AUTO 32003KT 15/14 A3030 RMK AO1 SLP216 T01500139
$





000
SAUS45 KPUB 310305 COR
MTRSPD
METAR KSPD 310256Z AUTO 03006KT 16/14 A3029 RMK AO1 SLP210 T01610144
51009 $





000
SAUS45 KPUB 310205 COR
MTRSPD
METAR KSPD 310156Z AUTO 03006KT 16/14 A3027 RMK AO1 SLP206 T01610144





000
SAUS45 KPUB 310105 COR
MTRSPD
METAR KSPD 310056Z AUTO 04011KT 16/14 A3027 RMK AO1 SLP207 T01610144





000
SAUS45 KPUB 310005 COR
MTRSPD
METAR KSPD 302356Z AUTO 05014KT 17/14 A3025 RMK AO1 SLP200 T01670144
10183 20156 50000





000
SAUS45 KPUB 302305 COR
MTRSPD
METAR KSPD 302256Z AUTO 04011KT 17/15 A3026 RMK AO1 SLP201 T01720150





000
SAUS45 KPUB 302205 COR
MTRSPD
METAR KSPD 302156Z AUTO 04013KT 17/15 A3026 RMK AO1 SLP200 T01720150





000
SAUS45 KPUB 302105 COR
MTRSPD
METAR KSPD 302056Z AUTO 04016KT 17/15 A3025 RMK AO1 SLP199 T01670150
53009





000
SAUS45 KPUB 302005 COR
MTRSPD
METAR KSPD 301956Z AUTO 03015KT 17/15 A3025 RMK AO1 SLP196 T01720150





000
SAUS45 KPUB 301905 COR
MTRSPD
METAR KSPD 301856Z AUTO 02017KT 17/16 A3023 RMK AO1 SLP190 T01720156





000
SAUS45 KPUB 301805 COR
MTRSPD
METAR KSPD 301756Z AUTO 03014KT 16/16 A3023 RMK AO1 SLP187 P0003
60005 T01610156 10183 20156 51017





000
SAUS45 KPUB 301705 COR
MTRSPD
METAR KSPD 301656Z AUTO 04015KT 16/16 A3021 RMK AO1 SLP182 P0001
T01610156





000
SAUS45 KPUB 301605 COR
MTRSPD
METAR KSPD 301556Z AUTO 03015G20KT 18/17 A3020 RMK AO1 SLP173
T01780167





000
SAUS45 KPUB 301505 COR
MTRSPD
METAR KSPD 301456Z AUTO 01016KT 18/17 A3017 RMK AO1 SLP164 P0001
60001 T01780167 53014





000
SAUS45 KPUB 301405 COR
MTRSPD
METAR KSPD 301356Z AUTO 35014KT 17/17 A3015 RMK AO1 SLP158 T01720167





000
SAUS45 KPUB 301305 COR
MTRSPD
METAR KSPD 301256Z AUTO 35014G21KT 16/16 A3013 RMK AO1 SLP151
T01610156





000
SAUS45 KPUB 301205 COR
MTRSPD
METAR KSPD 301156Z AUTO 34012KT 16/16 A3012 RMK AO1 SLP148 60036
70091 T01610156 10194 20156 51012





000
SAUS45 KPUB 301105 COR
MTRSPD
METAR KSPD 301056Z AUTO 35011KT 16/16 A3010 RMK AO1 SLP140 T01610161





000
SAUS45 KPUB 301005 COR
MTRSPD
METAR KSPD 300956Z AUTO 33013KT 17/17 A3011 RMK AO1 PK WND
31026/0927 SLP145 T01670167





000
SAUS45 KPUB 300905 COR
MTRSPD
METAR KSPD 300856Z AUTO 30013KT 17/16 A3008 RMK AO1 PK WND
30027/0827 SLP126 P0002 60036 T01720161 55006





000
SAUS45 KPUB 300805 COR
MTRSPD
METAR KSPD 300756Z AUTO 25012G18KT 17/16 A3007 RMK AO1 SLP120 P0005
T01670156





000
SAUS45 KPUB 300705 COR
MTRSPD
METAR KSPD 300656Z AUTO 23010G21KT 17/16 A3011 RMK AO1 WSHFT 0632
SLP133 P0029 T01670161 402940167





000
SAUS45 KPUB 300604 COR
MTRSPD
METAR KSPD 300556Z AUTO 15011G14KT 19/18 A3010 RMK AO1 SLP131 60009
T01940178 10233 20194 55004





000
SAUS45 KPUB 300505 COR
MTRSPD
METAR KSPD 300456Z AUTO 17015KT 19/18 A3009 RMK AO1 SLP127 T01940178





000
SAUS45 KPUB 300405 COR
MTRSPD
METAR KSPD 300356Z AUTO 17014KT 20/18 A3011 RMK AO1 SLP138 T02000183





000
SAUS45 KPUB 300305 COR
MTRSPD
METAR KSPD 300256Z AUTO 15009KT 19/18 A3012 RMK AO1 SLP140 P0004
60009 T01940183 50004





000
SAUS45 KPUB 300205 COR
MTRSPD
METAR KSPD 300156Z AUTO 31004KT 20/18 A3013 RMK AO1 SLP147 P0005
T02000183





000
SAUS45 KPUB 300105 COR
MTRSPD
METAR KSPD 300056Z AUTO 14007KT 110V170 23/16 A3011 RMK AO1 SLP138
T02280161





000
SAUS45 KPUB 300005 COR
MTRSPD
METAR KSPD 292356Z AUTO 15009KT 22/17 A3011 RMK AO1 SLP139 P0001
60046 T02170167 10294 20194 57007





000
SAUS45 KPUB 292305 COR
MTRSPD
METAR KSPD 292256Z AUTO 22004KT 22/18 A3011 RMK AO1 SLP141 P0001
T02170178





000
SAUS45 KPUB 292205 COR
MTRSPD
METAR KSPD 292156Z AUTO 13009KT 19/17 A3012 RMK AO1 SLP149 P0044
T01940167





000
SAUS45 KPUB 292105 COR
MTRSPD
METAR KSPD 292056Z AUTO 16019KT 27/16 A3013 RMK AO1 SLP141 T02670161
56019





000
SAUS45 KPUB 292005 COR
MTRSPD
METAR KSPD 291956Z AUTO 18010G17KT 29/17 A3014 RMK AO1 SLP142
T02890167





000
SAUS45 KPUB 291905 COR
MTRSPD
METAR KSPD 291856Z AUTO 20013G17KT 27/17 A3017 RMK AO1 SLP154
T02720167





000
SAUS45 KPUB 291805 COR
MTRSPD
METAR KSPD 291756Z AUTO 21010G16KT 26/17 A3019 RMK AO1 SLP165
T02560167 10256 20178 58009





000
SAUS45 KPUB 291705 COR
MTRSPD
METAR KSPD 291656Z AUTO 21012G20KT 24/17 A3021 RMK AO1 SLP173
T02440172





000
SAUS45 KPUB 291604 COR
MTRSPD
METAR KSPD 291556Z AUTO 21012G19KT 23/17 A3022 RMK AO1 SLP176
T02280172





000
SAUS45 KPUB 291505 COR
MTRSPD
METAR KSPD 291456Z AUTO 19016G22KT 22/18 A3023 RMK AO1 SLP179
T02220178 58001





000
SAUS45 KPUB 291405 COR
MTRSPD
METAR KSPD 291356Z AUTO 19013KT 19/18 A3024 RMK AO1 SLP185 T01940178





000
SAUS45 KPUB 291305 COR
MTRSPD
METAR KSPD 291256Z AUTO 20015KT 18/18 A3023 RMK AO1 SLP181 T01830178





000
SAUS45 KPUB 291205 COR
MTRSPD
METAR KSPD 291156Z AUTO 19012KT 18/17 A3023 RMK AO1 SLP182 T01780172
10178 20167 56003





000
SAUS45 KPUB 291105 COR
MTRSPD
METAR KSPD 291056Z AUTO 18014KT 18/17 A3023 RMK AO1 SLP181 T01780167





000
SAUS45 KPUB 291005 COR
MTRSPD
METAR KSPD 290956Z AUTO 17013KT 17/16 A3023 RMK AO1 SLP182 T01720161





000
SAUS45 KPUB 290905 COR
MTRSPD
METAR KSPD 290856Z AUTO 17006KT 17/17 A3024 RMK AO1 SLP188 T01720167
58018





000
SAUS45 KPUB 290805 COR
MTRSPD
METAR KSPD 290756Z AUTO 19009KT 17/17 A3027 RMK AO1 SLP197 T01720167





000
SAUS45 KPUB 290705 COR
MTRSPD
METAR KSPD 290656Z AUTO 20009KT 18/17 A3029 RMK AO1 SLP204 T01780172
402390161





000
SAUS45 KPUB 290605 COR
MTRSPD
METAR KSPD 290556Z AUTO 20008KT 18/17 A3030 RMK AO1 SLP211 T01780172
10217 20178 53005





000
SAUS45 KPUB 290505 COR
MTRSPD
METAR KSPD 290456Z AUTO 19007KT 18/17 A3029 RMK AO1 SLP206 T01780172





000
SAUS45 KPUB 290405 COR
MTRSPD
METAR KSPD 290356Z AUTO 18008KT 18/17 A3029 RMK AO1 SLP206 T01830172





000
SAUS45 KPUB 290305 COR
MTRSPD
METAR KSPD 290256Z AUTO 18009KT 19/17 A3028 RMK AO1 SLP205 T01890167
55001





000
SAUS45 KPUB 290204 COR
MTRSPD
METAR KSPD 290156Z AUTO 17010KT 20/16 A3028 RMK AO1 SLP202 T02000161





000
SAUS45 KPUB 290105 COR
MTRSPD
METAR KSPD 290056Z AUTO 18012KT 21/16 A3028 RMK AO1 SLP203 T02110156





000
SAUS45 KPUB 290005 COR
MTRSPD
METAR KSPD 282356Z AUTO 19016KT 22/16 A3029 RMK AO1 SLP204 T02170156
10239 20183 56015





    US Dept of Commerce
    National Oceanic and Atmospheric Administration
    National Weather Service
    1325 East West Highway
    Silver Spring, MD 20910
    Page Author: NWS Internet Services Team
Disclaimer
Information Quality
Credits
Glossary
Privacy Policy
Freedom of Information Act (FOIA)
About Us
Career Opportunities